Terminal Aerodrome Forecast
Issued by NWS Twin Cities, MN

Home | Current Version | Previous Version | Text Only | Print | Product List | Glossary Off
Versions: 1 2 3 4 5 6 7 8 9 10 11 12 13 14 15 16 17 18 19 20 21 22 23 24 25 26

000
FTUS43 KMPX 171700
TAFMSP
TAF
KMSP 171724Z 1718/1824 31006KT P6SM SCT015
      TEMPO 1718/1720 6SM -SN BKN015
     FM172300 34004KT P6SM FEW015 SCT250
     FM180300 VRB03KT P6SM SCT250
     FM181800 14004KT P6SM BKN150=

USA.gov is the U.S. government's official web portal to all federal, state and local government web resources and services.